JST534 YMML-YSSY
Flight info
| Callsign | JST534 |
|---|---|
| Flight time | 1h 3m |
| Altitude | 37000 |
| Route | DOSEL Y59 RIVET |
| Aircraft | A320/M-SDE3FGHIRWY/LB1 |
Departure
| Time | 2026-04-22 00:53 |
|---|---|
| Airport | Melbourne Airport (YMML) |
Arrival
| Time | 2026-04-22 01:56 |
|---|---|
| Airport | Sydney Kingsford Smith International Airport (YSSY) |
| Time | Latitude | Longitude | Altitude | Speed | Heading |
|---|---|---|---|---|---|
| 2026-04-22 00:17 | -37.67573 | 144.84657 | 378 ft | 0 kts | 81° |
| 2026-04-22 00:44 | -37.67575 | 144.84641 | 377 ft | 4 kts | 82° |
| 2026-04-22 00:45 | -37.67579 | 144.84608 | 377 ft | 4 kts | 79° |
| 2026-04-22 00:45 | -37.67585 | 144.84576 | 376 ft | 4 kts | 58° |
| 2026-04-22 00:45 | -37.67600 | 144.84560 | 375 ft | 2 kts | 352° |
| 2026-04-22 00:45 | -37.67618 | 144.84563 | 374 ft | 0 kts | 352° |
| 2026-04-22 00:49 | -37.67617 | 144.84563 | 374 ft | 0 kts | 352° |
| 2026-04-22 00:49 | -37.67602 | 144.84560 | 375 ft | 5 kts | 352° |
| 2026-04-22 00:49 | -37.67554 | 144.84551 | 376 ft | 9 kts | 352° |
| 2026-04-22 00:50 | -37.67479 | 144.84526 | 379 ft | 12 kts | 321° |
| 2026-04-22 00:50 | -37.67473 | 144.84411 | 377 ft | 16 kts | 261° |
| 2026-04-22 00:50 | -37.67556 | 144.84335 | 374 ft | 19 kts | 168° |
| 2026-04-22 00:50 | -37.67703 | 144.84362 | 369 ft | 24 kts | 171° |
| 2026-04-22 00:51 | -37.67830 | 144.84322 | 366 ft | 21 kts | 227° |
| 2026-04-22 00:51 | -37.67867 | 144.84157 | 364 ft | 12 kts | 260° |
| 2026-04-22 00:51 | -37.67874 | 144.84105 | 359 ft | 0 kts | 260° |
| 2026-04-22 00:51 | -37.67877 | 144.84081 | 361 ft | 10 kts | 260° |
| 2026-04-22 00:52 | -37.67866 | 144.83970 | 359 ft | 14 kts | 325° |
| 2026-04-22 00:52 | -37.67768 | 144.83948 | 362 ft | 19 kts | 353° |
| 2026-04-22 00:52 | -37.67405 | 144.83882 | 370 ft | 86 kts | 351° |
| 2026-04-22 00:52 | -37.66630 | 144.83740 | 403 ft | 137 kts | 353° |
| 2026-04-22 00:53 | -37.65622 | 144.83567 | 875 ft | 147 kts | 354° |
| 2026-04-22 00:53 | -37.64612 | 144.83376 | 1574 ft | 149 kts | 351° |
| 2026-04-22 00:53 | -37.63521 | 144.83161 | 2000 ft | 170 kts | 350° |
| 2026-04-22 00:53 | -37.62269 | 144.82911 | 2381 ft | 195 kts | 349° |
| 2026-04-22 00:54 | -37.60848 | 144.82628 | 2874 ft | 219 kts | 349° |
| 2026-04-22 00:54 | -37.59248 | 144.82465 | 3467 ft | 244 kts | 4° |
| 2026-04-22 00:54 | -37.57595 | 144.83177 | 4338 ft | 258 kts | 22° |
| 2026-04-22 00:54 | -37.55959 | 144.84174 | 5320 ft | 265 kts | 24° |
| 2026-04-22 00:55 | -37.54280 | 144.85205 | 6274 ft | 271 kts | 25° |
| 2026-04-22 00:55 | -37.52573 | 144.86255 | 7238 ft | 276 kts | 26° |
| 2026-04-22 00:55 | -37.49083 | 144.88388 | 9183 ft | 282 kts | 26° |
| 2026-04-22 00:56 | -37.47311 | 144.89465 | 10202 ft | 285 kts | 26° |
| 2026-04-22 00:56 | -37.45466 | 144.90613 | 10625 ft | 308 kts | 30° |
| 2026-04-22 00:56 | -37.43670 | 144.92224 | 11123 ft | 324 kts | 42° |
| 2026-04-22 00:56 | -37.42148 | 144.94356 | 11887 ft | 332 kts | 54° |
| 2026-04-22 00:57 | -37.40803 | 144.96749 | 12695 ft | 338 kts | 54° |
| 2026-04-22 00:57 | -37.39434 | 144.99178 | 13541 ft | 343 kts | 54° |
| 2026-04-22 00:57 | -37.38036 | 145.01649 | 14327 ft | 350 kts | 54° |
| 2026-04-22 00:57 | -37.36616 | 145.04160 | 15063 ft | 355 kts | 54° |
| 2026-04-22 00:58 | -37.35174 | 145.06705 | 15802 ft | 359 kts | 54° |
| 2026-04-22 00:58 | -37.33716 | 145.09277 | 16553 ft | 364 kts | 54° |
| 2026-04-22 00:58 | -37.32260 | 145.11846 | 17287 ft | 367 kts | 54° |
| 2026-04-22 00:58 | -37.30772 | 145.14477 | 18021 ft | 372 kts | 54° |
| 2026-04-22 00:59 | -37.29266 | 145.17141 | 18749 ft | 376 kts | 54° |
| 2026-04-22 00:59 | -37.27742 | 145.19831 | 19404 ft | 380 kts | 54° |
| 2026-04-22 00:59 | -37.26197 | 145.22550 | 20093 ft | 384 kts | 54° |
| 2026-04-22 00:59 | -37.24635 | 145.25289 | 20823 ft | 388 kts | 53° |
| 2026-04-22 01:00 | -37.23058 | 145.28054 | 21524 ft | 392 kts | 53° |
| 2026-04-22 01:00 | -37.21460 | 145.30855 | 22174 ft | 396 kts | 54° |
| 2026-04-22 01:00 | -37.20398 | 145.32716 | 22610 ft | 399 kts | 53° |
| 2026-04-22 01:00 | -37.18221 | 145.36525 | 23506 ft | 404 kts | 53° |
| 2026-04-22 01:01 | -37.16574 | 145.39402 | 24139 ft | 408 kts | 53° |
| 2026-04-22 01:01 | -37.15476 | 145.41322 | 24504 ft | 411 kts | 53° |
| 2026-04-22 01:01 | -37.13804 | 145.44246 | 25075 ft | 414 kts | 53° |
| 2026-04-22 01:01 | -37.12119 | 145.47192 | 25629 ft | 419 kts | 53° |
| 2026-04-22 01:02 | -37.10409 | 145.50176 | 26169 ft | 423 kts | 53° |
| 2026-04-22 01:02 | -37.08682 | 145.53183 | 26718 ft | 427 kts | 53° |
| 2026-04-22 01:02 | -37.06943 | 145.56204 | 27328 ft | 429 kts | 53° |
| 2026-04-22 01:02 | -37.05192 | 145.59249 | 27913 ft | 433 kts | 53° |
| 2026-04-22 01:03 | -37.03426 | 145.62319 | 28446 ft | 436 kts | 53° |
| 2026-04-22 01:03 | -37.01641 | 145.65416 | 28984 ft | 440 kts | 53° |
| 2026-04-22 01:03 | -36.99838 | 145.68537 | 29487 ft | 445 kts | 53° |
| 2026-04-22 01:03 | -36.98013 | 145.71687 | 29997 ft | 449 kts | 53° |
| 2026-04-22 01:04 | -36.96176 | 145.74858 | 30491 ft | 453 kts | 53° |
| 2026-04-22 01:04 | -36.94318 | 145.78072 | 30902 ft | 457 kts | 53° |
| 2026-04-22 01:04 | -36.92454 | 145.81301 | 31329 ft | 459 kts | 53° |
| 2026-04-22 01:04 | -36.90580 | 145.84548 | 31739 ft | 463 kts | 53° |
| 2026-04-22 01:05 | -36.88688 | 145.87814 | 32134 ft | 466 kts | 53° |
| 2026-04-22 01:05 | -36.86784 | 145.91096 | 32589 ft | 466 kts | 53° |
| 2026-04-22 01:05 | -36.84881 | 145.94368 | 33113 ft | 466 kts | 53° |
| 2026-04-22 01:05 | -36.82972 | 145.97643 | 33660 ft | 466 kts | 53° |
| 2026-04-22 01:06 | -36.81068 | 146.00906 | 34163 ft | 465 kts | 53° |
| 2026-04-22 01:06 | -36.79162 | 146.04172 | 34637 ft | 465 kts | 53° |
| 2026-04-22 01:06 | -36.77256 | 146.07439 | 35077 ft | 466 kts | 53° |
| 2026-04-22 01:06 | -36.75350 | 146.10705 | 35491 ft | 467 kts | 53° |
| 2026-04-22 01:07 | -36.73440 | 146.13978 | 35935 ft | 467 kts | 53° |
| 2026-04-22 01:07 | -36.71529 | 146.17247 | 36390 ft | 466 kts | 52° |
| 2026-04-22 01:07 | -36.69615 | 146.20515 | 36834 ft | 466 kts | 52° |
| 2026-04-22 01:07 | -36.67707 | 146.23770 | 37245 ft | 466 kts | 52° |
| 2026-04-22 01:08 | -36.65789 | 146.27041 | 37381 ft | 466 kts | 52° |
| 2026-04-22 01:08 | -36.63879 | 146.30291 | 37405 ft | 464 kts | 52° |
| 2026-04-22 01:08 | -36.60063 | 146.36771 | 37403 ft | 465 kts | 52° |
| 2026-04-22 01:09 | -36.56232 | 146.43264 | 37400 ft | 466 kts | 52° |
| 2026-04-22 01:09 | -36.52399 | 146.49757 | 37402 ft | 466 kts | 52° |
| 2026-04-22 01:10 | -36.48560 | 146.56245 | 37391 ft | 466 kts | 52° |
| 2026-04-22 01:10 | -36.44715 | 146.62733 | 37394 ft | 467 kts | 52° |
| 2026-04-22 01:11 | -36.40858 | 146.69227 | 37398 ft | 467 kts | 52° |
| 2026-04-22 01:11 | -36.36995 | 146.75723 | 37398 ft | 468 kts | 52° |
| 2026-04-22 01:12 | -36.33128 | 146.82213 | 37407 ft | 467 kts | 52° |
| 2026-04-22 01:12 | -36.29252 | 146.88696 | 37405 ft | 468 kts | 52° |
| 2026-04-22 01:13 | -36.25371 | 146.95189 | 37403 ft | 469 kts | 52° |
| 2026-04-22 01:13 | -36.21478 | 147.01677 | 37394 ft | 469 kts | 52° |
| 2026-04-22 01:14 | -36.17578 | 147.08163 | 37397 ft | 470 kts | 52° |
| 2026-04-22 01:14 | -36.13671 | 147.14647 | 37402 ft | 471 kts | 52° |
| 2026-04-22 01:15 | -36.09750 | 147.21145 | 37397 ft | 471 kts | 52° |
| 2026-04-22 01:15 | -36.05847 | 147.27603 | 37387 ft | 472 kts | 52° |
| 2026-04-22 01:16 | -36.01914 | 147.34103 | 37395 ft | 473 kts | 52° |
| 2026-04-22 01:16 | -35.97946 | 147.40650 | 37399 ft | 473 kts | 53° |
| 2026-04-22 01:17 | -35.94015 | 147.47108 | 37399 ft | 474 kts | 53° |
| 2026-04-22 01:17 | -35.90055 | 147.53611 | 37397 ft | 474 kts | 52° |
| 2026-04-22 01:18 | -35.86090 | 147.60114 | 37403 ft | 474 kts | 52° |
| 2026-04-22 01:18 | -35.82117 | 147.66608 | 37413 ft | 474 kts | 53° |
| 2026-04-22 01:19 | -35.78120 | 147.73144 | 37396 ft | 475 kts | 53° |
| 2026-04-22 01:19 | -35.74169 | 147.79601 | 37392 ft | 475 kts | 53° |
| 2026-04-22 01:20 | -35.70182 | 147.86097 | 37391 ft | 476 kts | 53° |
| 2026-04-22 01:20 | -35.66183 | 147.92574 | 37393 ft | 476 kts | 52° |
| 2026-04-22 01:21 | -35.62175 | 147.99055 | 37391 ft | 476 kts | 53° |
| 2026-04-22 01:21 | -35.58164 | 148.05551 | 37387 ft | 477 kts | 53° |
| 2026-04-22 01:22 | -35.54146 | 148.12041 | 37386 ft | 477 kts | 53° |
| 2026-04-22 01:22 | -35.50120 | 148.18530 | 37375 ft | 478 kts | 52° |
| 2026-04-22 01:23 | -35.46087 | 148.25015 | 37379 ft | 479 kts | 53° |
| 2026-04-22 01:23 | -35.42038 | 148.31520 | 37379 ft | 480 kts | 53° |
| 2026-04-22 01:24 | -35.37988 | 148.38019 | 37386 ft | 480 kts | 53° |
| 2026-04-22 01:24 | -35.33926 | 148.44507 | 37381 ft | 480 kts | 53° |
| 2026-04-22 01:25 | -35.29857 | 148.51003 | 37391 ft | 481 kts | 53° |
| 2026-04-22 01:25 | -35.25784 | 148.57501 | 37383 ft | 482 kts | 53° |
| 2026-04-22 01:26 | -35.21695 | 148.64008 | 37378 ft | 482 kts | 53° |
| 2026-04-22 01:26 | -35.17594 | 148.70513 | 37383 ft | 484 kts | 53° |
| 2026-04-22 01:27 | -35.13484 | 148.77027 | 37404 ft | 484 kts | 53° |
| 2026-04-22 01:27 | -35.09369 | 148.83545 | 37401 ft | 485 kts | 53° |
| 2026-04-22 01:28 | -35.05242 | 148.90055 | 37392 ft | 485 kts | 53° |
| 2026-04-22 01:28 | -35.01106 | 148.96560 | 37393 ft | 486 kts | 53° |
| 2026-04-22 01:29 | -34.96967 | 149.03075 | 37394 ft | 486 kts | 53° |
| 2026-04-22 01:29 | -34.92819 | 149.09588 | 37408 ft | 486 kts | 53° |
| 2026-04-22 01:30 | -34.88671 | 149.16095 | 37378 ft | 487 kts | 53° |
| 2026-04-22 01:30 | -34.84510 | 149.22620 | 37372 ft | 489 kts | 53° |
| 2026-04-22 01:31 | -34.80323 | 149.29153 | 37370 ft | 490 kts | 53° |
| 2026-04-22 01:31 | -34.76126 | 149.35687 | 37364 ft | 490 kts | 53° |
| 2026-04-22 01:32 | -34.72419 | 149.42607 | 37357 ft | 489 kts | 64° |
| 2026-04-22 01:32 | -34.69268 | 149.49881 | 36599 ft | 492 kts | 64° |
| 2026-04-22 01:33 | -34.67656 | 149.53587 | 35695 ft | 500 kts | 64° |
| 2026-04-22 01:33 | -34.66022 | 149.57330 | 34954 ft | 502 kts | 64° |
| 2026-04-22 01:33 | -34.64358 | 149.61130 | 34278 ft | 503 kts | 64° |
| 2026-04-22 01:33 | -34.62736 | 149.64820 | 33548 ft | 502 kts | 64° |
| 2026-04-22 01:34 | -34.61095 | 149.68553 | 32781 ft | 501 kts | 64° |
| 2026-04-22 01:34 | -34.59454 | 149.72287 | 31971 ft | 501 kts | 64° |
| 2026-04-22 01:34 | -34.57817 | 149.76015 | 31193 ft | 501 kts | 64° |
| 2026-04-22 01:34 | -34.56182 | 149.79742 | 30389 ft | 500 kts | 64° |
| 2026-04-22 01:35 | -34.54552 | 149.83461 | 29426 ft | 498 kts | 64° |
| 2026-04-22 01:35 | -34.52923 | 149.87168 | 28561 ft | 496 kts | 64° |
| 2026-04-22 01:35 | -34.51305 | 149.90832 | 27747 ft | 492 kts | 65° |
| 2026-04-22 01:35 | -34.49690 | 149.94480 | 26902 ft | 489 kts | 65° |
| 2026-04-22 01:36 | -34.48088 | 149.98091 | 26159 ft | 483 kts | 65° |
| 2026-04-22 01:36 | -34.46507 | 150.01654 | 25443 ft | 477 kts | 65° |
| 2026-04-22 01:36 | -34.44941 | 150.05176 | 24745 ft | 471 kts | 65° |
| 2026-04-22 01:36 | -34.43398 | 150.08649 | 24079 ft | 466 kts | 65° |
| 2026-04-22 01:37 | -34.41872 | 150.12085 | 23332 ft | 460 kts | 65° |
| 2026-04-22 01:37 | -34.40369 | 150.15468 | 22601 ft | 453 kts | 65° |
| 2026-04-22 01:37 | -34.38887 | 150.18805 | 21919 ft | 446 kts | 65° |
| 2026-04-22 01:37 | -34.37427 | 150.22089 | 21235 ft | 439 kts | 65° |
| 2026-04-22 01:38 | -34.35989 | 150.25316 | 20565 ft | 432 kts | 65° |
| 2026-04-22 01:38 | -34.34573 | 150.28492 | 19903 ft | 426 kts | 65° |
| 2026-04-22 01:38 | -34.33175 | 150.31621 | 19257 ft | 420 kts | 65° |
| 2026-04-22 01:38 | -34.31796 | 150.34702 | 18614 ft | 414 kts | 65° |
| 2026-04-22 01:39 | -34.30431 | 150.37745 | 17921 ft | 408 kts | 65° |
| 2026-04-22 01:39 | -34.29084 | 150.40747 | 17238 ft | 404 kts | 65° |
| 2026-04-22 01:39 | -34.27754 | 150.43712 | 16585 ft | 399 kts | 65° |
| 2026-04-22 01:39 | -34.26442 | 150.46651 | 15862 ft | 393 kts | 65° |
| 2026-04-22 01:40 | -34.25170 | 150.49497 | 15151 ft | 376 kts | 65° |
| 2026-04-22 01:40 | -34.23954 | 150.52211 | 14488 ft | 359 kts | 65° |
| 2026-04-22 01:40 | -34.22791 | 150.54805 | 13790 ft | 345 kts | 65° |
| 2026-04-22 01:40 | -34.21665 | 150.57312 | 13046 ft | 334 kts | 65° |
| 2026-04-22 01:41 | -34.20578 | 150.59742 | 12350 ft | 325 kts | 65° |
| 2026-04-22 01:41 | -34.19515 | 150.62112 | 11660 ft | 318 kts | 64° |
| 2026-04-22 01:41 | -34.18470 | 150.64439 | 10974 ft | 313 kts | 64° |
| 2026-04-22 01:41 | -34.17444 | 150.66722 | 10459 ft | 303 kts | 64° |
| 2026-04-22 01:42 | -34.16467 | 150.68892 | 10217 ft | 287 kts | 64° |
| 2026-04-22 01:42 | -34.15521 | 150.71000 | 9950 ft | 284 kts | 64° |
| 2026-04-22 01:42 | -34.14580 | 150.73089 | 9813 ft | 283 kts | 64° |
| 2026-04-22 01:42 | -34.13641 | 150.75182 | 9687 ft | 283 kts | 64° |
| 2026-04-22 01:43 | -34.12706 | 150.77263 | 9557 ft | 282 kts | 65° |
| 2026-04-22 01:43 | -34.11770 | 150.79340 | 9432 ft | 282 kts | 65° |
| 2026-04-22 01:43 | -34.10836 | 150.81402 | 9204 ft | 279 kts | 64° |
| 2026-04-22 01:43 | -34.09913 | 150.83453 | 8868 ft | 277 kts | 65° |
| 2026-04-22 01:44 | -34.09308 | 150.84802 | 8745 ft | 277 kts | 65° |
| 2026-04-22 01:44 | -34.08084 | 150.87536 | 8447 ft | 276 kts | 65° |
| 2026-04-22 01:44 | -34.07479 | 150.88880 | 8299 ft | 276 kts | 65° |
| 2026-04-22 01:44 | -34.06254 | 150.91594 | 7991 ft | 275 kts | 65° |
| 2026-04-22 01:45 | -34.05650 | 150.92929 | 7838 ft | 273 kts | 65° |
| 2026-04-22 01:45 | -34.04740 | 150.94945 | 7625 ft | 274 kts | 64° |
| 2026-04-22 01:45 | -34.03812 | 150.96948 | 7398 ft | 274 kts | 59° |
| 2026-04-22 01:45 | -34.02472 | 150.98586 | 7168 ft | 279 kts | 35° |
| 2026-04-22 01:46 | -34.00664 | 150.99449 | 6936 ft | 283 kts | 10° |
| 2026-04-22 01:46 | -33.98703 | 150.99341 | 6682 ft | 284 kts | 347° |
| 2026-04-22 01:46 | -33.96790 | 150.98732 | 6440 ft | 284 kts | 346° |
| 2026-04-22 01:46 | -33.94882 | 150.98120 | 6206 ft | 284 kts | 346° |
| 2026-04-22 01:47 | -33.92968 | 150.97507 | 5961 ft | 284 kts | 345° |
| 2026-04-22 01:47 | -33.91062 | 150.96901 | 5716 ft | 282 kts | 346° |
| 2026-04-22 01:47 | -33.89162 | 150.96301 | 5455 ft | 282 kts | 346° |
| 2026-04-22 01:47 | -33.87274 | 150.95709 | 5207 ft | 280 kts | 346° |
| 2026-04-22 01:48 | -33.85384 | 150.95109 | 4971 ft | 280 kts | 345° |
| 2026-04-22 01:48 | -33.83502 | 150.94509 | 4718 ft | 280 kts | 346° |
| 2026-04-22 01:48 | -33.81605 | 150.94009 | 4476 ft | 278 kts | 358° |
| 2026-04-22 01:48 | -33.79730 | 150.94367 | 4237 ft | 272 kts | 25° |
| 2026-04-22 01:49 | -33.78211 | 150.95650 | 4001 ft | 266 kts | 52° |
| 2026-04-22 01:49 | -33.77324 | 150.97538 | 3800 ft | 256 kts | 77° |
| 2026-04-22 01:49 | -33.76949 | 150.99585 | 3694 ft | 246 kts | 81° |
| 2026-04-22 01:49 | -33.76603 | 151.01550 | 3595 ft | 235 kts | 82° |
| 2026-04-22 01:50 | -33.76267 | 151.03428 | 3493 ft | 225 kts | 82° |
| 2026-04-22 01:50 | -33.75945 | 151.05215 | 3396 ft | 213 kts | 82° |
| 2026-04-22 01:50 | -33.75638 | 151.06919 | 3290 ft | 204 kts | 82° |
| 2026-04-22 01:50 | -33.75343 | 151.08560 | 3193 ft | 199 kts | 83° |
| 2026-04-22 01:51 | -33.75060 | 151.10163 | 3100 ft | 194 kts | 84° |
| 2026-04-22 01:51 | -33.75163 | 151.11696 | 3024 ft | 178 kts | 120° |
| 2026-04-22 01:51 | -33.75955 | 151.12689 | 2991 ft | 156 kts | 155° |
| 2026-04-22 01:51 | -33.76943 | 151.13015 | 2995 ft | 140 kts | 169° |
| 2026-04-22 01:52 | -33.77870 | 151.13254 | 3016 ft | 136 kts | 168° |
| 2026-04-22 01:52 | -33.78853 | 151.13511 | 2943 ft | 152 kts | 168° |
| 2026-04-22 01:52 | -33.79887 | 151.13780 | 2710 ft | 150 kts | 169° |
| 2026-04-22 01:52 | -33.80906 | 151.14044 | 2500 ft | 149 kts | 169° |
| 2026-04-22 01:53 | -33.81916 | 151.14306 | 2290 ft | 149 kts | 167° |
| 2026-04-22 01:53 | -33.82927 | 151.14567 | 2089 ft | 149 kts | 168° |
| 2026-04-22 01:53 | -33.83951 | 151.14832 | 1880 ft | 151 kts | 169° |
| 2026-04-22 01:53 | -33.84958 | 151.15092 | 1677 ft | 144 kts | 169° |
| 2026-04-22 01:54 | -33.85915 | 151.15340 | 1491 ft | 139 kts | 169° |
| 2026-04-22 01:54 | -33.86822 | 151.15575 | 1307 ft | 131 kts | 168° |
| 2026-04-22 01:54 | -33.87704 | 151.15804 | 1137 ft | 127 kts | 168° |
| 2026-04-22 01:54 | -33.88558 | 151.16025 | 984 ft | 125 kts | 169° |
| 2026-04-22 01:55 | -33.89400 | 151.16243 | 812 ft | 123 kts | 168° |
| 2026-04-22 01:55 | -33.90243 | 151.16461 | 631 ft | 124 kts | 167° |
| 2026-04-22 01:55 | -33.91076 | 151.16678 | 446 ft | 126 kts | 167° |
| 2026-04-22 01:55 | -33.91938 | 151.16905 | 312 ft | 124 kts | 167° |
| 2026-04-22 01:56 | -33.92766 | 151.17115 | 118 ft | 123 kts | 167° |
| 2026-04-22 01:56 | -33.93586 | 151.17328 | 35 ft | 111 kts | 165° |
| 2026-04-22 01:56 | -33.94134 | 151.17472 | 28 ft | 39 kts | 167° |
| 2026-04-22 01:56 | -33.94364 | 151.17572 | 30 ft | 29 kts | 153° |
| 2026-04-22 01:57 | -33.94483 | 151.17683 | 30 ft | 17 kts | 140° |
| 2026-04-22 01:57 | -33.94488 | 151.17777 | 30 ft | 11 kts | 19° |
| 2026-04-22 01:57 | -33.94419 | 151.17762 | 30 ft | 12 kts | 346° |
| 2026-04-22 01:57 | -33.94330 | 151.17735 | 30 ft | 15 kts | 346° |
| 2026-04-22 01:58 | -33.94229 | 151.17703 | 29 ft | 9 kts | 345° |
| 2026-04-22 01:58 | -33.94216 | 151.17699 | 29 ft | 0 kts | 345° |